createdAt,value
2022-12-01T00:01:14.055Z,8.50
2022-12-01T00:03:41.004Z,8.60
2022-12-01T00:06:16.544Z,8.60
2022-12-01T00:09:04.509Z,8.60
2022-12-01T00:11:31.596Z,8.50
2022-12-01T00:13:58.576Z,8.50
2022-12-01T00:16:25.479Z,8.60
2022-12-01T00:18:53.398Z,8.60
2022-12-01T00:21:23.370Z,8.50
2022-12-01T00:23:52.276Z,8.60
2022-12-01T00:26:21.173Z,8.60
2022-12-01T00:28:52.763Z,8.50
2022-12-01T00:31:20.098Z,8.50
2022-12-01T00:33:46.992Z,8.40
2022-12-01T00:36:14.041Z,8.50
2022-12-01T00:38:40.890Z,8.50
2022-12-01T00:41:08.003Z,8.50
2022-12-01T00:43:34.853Z,8.50
2022-12-01T00:46:01.665Z,8.50
2022-12-01T00:48:28.640Z,8.40
2022-12-01T00:50:55.730Z,8.40
2022-12-01T00:53:23.538Z,8.50
2022-12-01T00:55:50.547Z,8.50
2022-12-01T00:58:17.404Z,8.20
2022-12-01T01:00:44.199Z,8.40
2022-12-01T01:03:11.901Z,8.20
2022-12-01T01:05:40.204Z,8.60
2022-12-01T01:08:08.208Z,8.60
2022-12-01T01:10:42.962Z,8.50
2022-12-01T01:13:10.539Z,8.60
2022-12-01T01:15:37.847Z,8.40
2022-12-01T01:18:05.701Z,8.50
2022-12-01T01:20:33.083Z,8.50
2022-12-01T01:22:59.944Z,8.30
2022-12-01T01:25:27.119Z,8.40
2022-12-01T01:27:54.192Z,8.40
2022-12-01T01:30:21.216Z,8.50
2022-12-01T01:32:48.016Z,8.50
2022-12-01T01:35:14.849Z,8.50
2022-12-01T01:37:41.628Z,8.40
2022-12-01T01:40:08.997Z,8.40
2022-12-01T01:42:35.839Z,8.40
2022-12-01T01:45:02.643Z,8.30
2022-12-01T01:47:35.064Z,8.40
2022-12-01T01:50:09.192Z,8.20
2022-12-01T01:52:36.742Z,8.30
2022-12-01T01:55:04.722Z,8.30
2022-12-01T01:57:34.064Z,8.20
2022-12-01T02:00:13.870Z,8.30
2022-12-01T02:02:45.892Z,8.30
2022-12-01T02:05:20.952Z,8.30
2022-12-01T02:07:48.217Z,8.20
2022-12-01T02:10:22.352Z,8.20
2022-12-01T02:12:55.203Z,8.20
2022-12-01T02:15:51.369Z,8.00
2022-12-01T02:18:29.854Z,8.20
2022-12-01T02:21:24.772Z,8.10
2022-12-01T02:24:29.010Z,8.10
2022-12-01T02:27:27.830Z,8.10
2022-12-01T02:30:06.982Z,8.10
2022-12-01T02:32:58.598Z,8.10
2022-12-01T02:35:34.862Z,8.20
2022-12-01T02:38:20.296Z,8.10
2022-12-01T02:40:54.384Z,8.10
2022-12-01T02:43:29.579Z,8.00
2022-12-01T02:46:17.103Z,7.90
2022-12-01T02:48:49.854Z,8.00
2022-12-01T02:51:30.669Z,8.10
2022-12-01T02:54:00.741Z,8.00
2022-12-01T02:56:27.764Z,8.00
2022-12-01T02:58:54.639Z,8.20
2022-12-01T03:02:05.534Z,7.90
2022-12-01T03:04:39.325Z,7.90
2022-12-01T03:07:43.847Z,8.00
2022-12-01T03:10:30.157Z,8.10
2022-12-01T03:13:10.909Z,8.00
2022-12-01T03:16:06.708Z,8.10
2022-12-01T03:18:55.373Z,8.10
2022-12-01T03:21:43.354Z,7.90
2022-12-01T03:24:22.334Z,7.90
2022-12-01T03:26:56.946Z,7.90
2022-12-01T03:29:45.038Z,7.90
2022-12-01T03:32:32.400Z,8.00
2022-12-01T03:35:08.931Z,7.90
2022-12-01T03:37:41.866Z,7.90
2022-12-01T03:40:12.807Z,7.90
2022-12-01T03:42:44.913Z,8.00
2022-12-01T03:45:28.234Z,7.80
2022-12-01T03:47:55.152Z,7.80
2022-12-01T03:50:29.233Z,8.00
2022-12-01T03:53:07.006Z,7.70
2022-12-01T03:55:39.238Z,7.70
2022-12-01T03:58:11.290Z,7.80
2022-12-01T04:00:38.977Z,7.80
2022-12-01T04:03:06.613Z,7.80
2022-12-01T04:05:34.769Z,7.80
2022-12-01T04:08:02.352Z,7.90
2022-12-01T04:10:29.332Z,8.00
2022-12-01T04:12:59.578Z,7.80
2022-12-01T04:15:27.397Z,7.80
2022-12-01T04:17:54.544Z,7.90
2022-12-01T04:20:21.948Z,7.90
2022-12-01T04:22:49.031Z,7.90
2022-12-01T04:25:15.938Z,7.90
2022-12-01T04:27:42.732Z,7.70
2022-12-01T04:30:10.506Z,7.90
2022-12-01T04:32:42.694Z,7.90
2022-12-01T04:35:12.223Z,7.90
2022-12-01T04:37:39.473Z,7.80
2022-12-01T04:40:07.086Z,8.00
2022-12-01T04:42:33.926Z,7.90
2022-12-01T04:45:00.718Z,7.80
2022-12-01T04:47:27.505Z,8.00
2022-12-01T04:49:54.625Z,8.00
2022-12-01T04:52:21.596Z,8.00
2022-12-01T04:54:48.334Z,8.10
2022-12-01T04:57:15.180Z,8.10
2022-12-01T04:59:41.921Z,8.00
2022-12-01T05:02:08.766Z,7.80
2022-12-01T05:04:38.691Z,8.00
2022-12-01T05:07:05.517Z,7.90
2022-12-01T05:09:32.343Z,8.00
2022-12-01T05:11:59.165Z,8.00
2022-12-01T05:14:26.004Z,8.00
2022-12-01T05:16:54.363Z,7.90
2022-12-01T05:19:39.903Z,8.10
2022-12-01T05:22:06.694Z,8.00
2022-12-01T05:24:33.473Z,8.00
2022-12-01T05:27:00.264Z,7.90
2022-12-01T05:29:27.081Z,8.00
2022-12-01T05:31:53.926Z,7.90
2022-12-01T05:34:20.809Z,7.90
2022-12-01T05:36:47.624Z,7.90
2022-12-01T05:39:14.446Z,7.80
2022-12-01T05:41:41.285Z,7.80
2022-12-01T05:44:08.070Z,7.90
2022-12-01T05:46:34.884Z,7.80
2022-12-01T05:49:01.664Z,8.00
2022-12-01T05:51:28.448Z,7.90
2022-12-01T05:53:55.232Z,8.00
2022-12-01T05:56:22.062Z,8.00
2022-12-01T05:58:48.889Z,8.00
2022-12-01T06:01:15.903Z,7.90
2022-12-01T06:03:42.842Z,7.80
2022-12-01T06:06:09.756Z,7.90
2022-12-01T06:08:36.597Z,7.90
2022-12-01T06:11:03.444Z,7.90
2022-12-01T06:13:30.705Z,8.00
2022-12-01T06:16:03.150Z,7.90
2022-12-01T06:18:35.620Z,7.90
2022-12-01T06:21:03.116Z,8.00
2022-12-01T06:23:30.708Z,8.00
2022-12-01T06:25:58.127Z,7.90
2022-12-01T06:28:25.127Z,7.70
2022-12-01T06:30:51.945Z,7.80
2022-12-01T06:33:18.724Z,7.90
2022-12-01T06:35:45.606Z,8.00
2022-12-01T06:38:12.675Z,7.70
2022-12-01T06:40:39.545Z,7.80
2022-12-01T06:43:06.517Z,7.70
2022-12-01T06:45:33.378Z,7.90
2022-12-01T06:48:00.343Z,7.90
2022-12-01T06:50:27.695Z,7.90
2022-12-01T06:52:55.168Z,7.70
2022-12-01T06:55:22.132Z,7.80
2022-12-01T06:57:49.407Z,7.80
2022-12-01T07:00:17.169Z,7.80
2022-12-01T07:02:44.570Z,7.90
2022-12-01T07:05:11.502Z,7.90
2022-12-01T07:07:39.747Z,7.70
2022-12-01T07:10:08.010Z,7.80
2022-12-01T07:12:34.853Z,7.70
2022-12-01T07:15:02.031Z,7.90
2022-12-01T07:17:29.843Z,7.90
2022-12-01T07:19:57.150Z,7.80
2022-12-01T07:22:28.114Z,7.70
2022-12-01T07:24:57.874Z,7.80
2022-12-01T07:27:24.708Z,7.90
2022-12-01T07:29:51.674Z,7.90
2022-12-01T07:32:18.610Z,8.00
2022-12-01T07:34:45.611Z,8.10
2022-12-01T07:37:12.466Z,8.00
2022-12-01T07:39:39.373Z,8.10
2022-12-01T07:42:06.204Z,8.00
2022-12-01T07:44:32.998Z,8.10
2022-12-01T07:46:59.807Z,8.20
2022-12-01T07:49:26.640Z,8.20
2022-12-01T07:51:53.414Z,8.20
2022-12-01T07:54:21.396Z,8.30
2022-12-01T07:56:48.297Z,8.40
2022-12-01T07:59:15.097Z,8.30
2022-12-01T08:01:44.756Z,8.50
2022-12-01T08:04:12.409Z,8.50
2022-12-01T08:06:39.223Z,8.60
2022-12-01T08:09:06.308Z,8.50
2022-12-01T08:11:33.098Z,8.60
2022-12-01T08:13:59.858Z,8.80
2022-12-01T08:16:26.640Z,8.80
2022-12-01T08:18:53.940Z,8.80
2022-12-01T08:21:22.514Z,8.90
2022-12-01T08:23:53.494Z,9.00
2022-12-01T08:26:20.714Z,9.00
2022-12-01T08:28:47.497Z,9.10
2022-12-01T08:31:18.897Z,9.20
2022-12-01T08:33:47.014Z,9.20
2022-12-01T08:36:14.129Z,9.30
2022-12-01T08:38:43.776Z,9.30
2022-12-01T08:41:11.085Z,9.50
2022-12-01T08:43:57.259Z,9.50
2022-12-01T08:46:25.239Z,9.60
2022-12-01T08:48:52.044Z,9.70
2022-12-01T08:51:19.363Z,9.70
2022-12-01T08:53:48.184Z,9.60
2022-12-01T08:56:25.065Z,9.80
2022-12-01T08:58:51.894Z,9.80
2022-12-01T09:01:20.288Z,9.90
2022-12-01T09:03:47.213Z,10.00
2022-12-01T09:06:20.298Z,9.90
2022-12-01T09:08:47.533Z,10.10
2022-12-01T09:11:17.453Z,10.10
2022-12-01T09:13:48.641Z,10.20
2022-12-01T09:16:19.203Z,10.30
2022-12-01T09:18:47.165Z,10.30
2022-12-01T09:21:15.693Z,10.30
2022-12-01T09:23:43.040Z,10.30
2022-12-01T09:26:13.522Z,10.40
2022-12-01T09:28:40.953Z,10.50
2022-12-01T09:31:09.485Z,10.60
2022-12-01T09:33:36.724Z,10.70
2022-12-01T09:36:05.303Z,10.80
2022-12-01T09:38:33.985Z,10.90
2022-12-01T09:41:22.922Z,11.10
2022-12-01T09:44:10.640Z,10.90
2022-12-01T09:46:43.556Z,11.00
2022-12-01T09:49:46.457Z,11.00
2022-12-01T09:52:16.681Z,11.10
2022-12-01T09:54:43.650Z,11.00
2022-12-01T09:57:29.025Z,11.00
2022-12-01T09:59:56.821Z,11.10
2022-12-01T10:02:33.129Z,11.20
2022-12-01T10:05:04.038Z,11.20
2022-12-01T10:07:32.969Z,11.20
2022-12-01T10:10:03.789Z,11.30
2022-12-01T10:12:33.676Z,11.30
2022-12-01T10:15:20.941Z,11.40
2022-12-01T10:18:02.353Z,11.40
2022-12-01T10:20:36.672Z,11.50
2022-12-01T10:23:09.742Z,11.50
2022-12-01T10:25:54.224Z,11.60
2022-12-01T10:28:51.564Z,11.60
2022-12-01T10:31:30.437Z,11.60
2022-12-01T10:34:11.045Z,11.70
2022-12-01T10:36:37.982Z,11.70
2022-12-01T10:39:07.070Z,11.70
2022-12-01T10:41:37.044Z,11.70
2022-12-01T10:44:05.694Z,11.70
2022-12-01T10:46:40.785Z,11.70
2022-12-01T10:49:10.988Z,11.80
2022-12-01T10:51:51.761Z,11.90
2022-12-01T10:54:19.810Z,12.00
2022-12-01T10:56:49.335Z,12.00
2022-12-01T10:59:33.950Z,12.10
2022-12-01T11:02:02.544Z,12.00
2022-12-01T11:04:45.027Z,12.00
2022-12-01T11:07:23.819Z,12.30
2022-12-01T11:10:05.022Z,12.30
2022-12-01T11:12:32.922Z,12.50
2022-12-01T11:15:00.155Z,12.70
2022-12-01T11:17:42.553Z,12.70
2022-12-01T11:20:32.166Z,12.90
2022-12-01T11:23:17.508Z,13.00
2022-12-01T11:26:02.174Z,13.20
2022-12-01T11:28:30.286Z,13.10
2022-12-01T11:31:04.063Z,13.20
2022-12-01T11:33:38.082Z,13.40
2022-12-01T11:36:05.674Z,13.40
2022-12-01T11:38:34.605Z,13.40
2022-12-01T11:41:01.447Z,13.50
2022-12-01T11:43:35.114Z,13.60
2022-12-01T11:46:09.263Z,13.70
2022-12-01T11:48:36.665Z,13.70
2022-12-01T11:51:26.665Z,13.70
2022-12-01T11:54:25.938Z,13.70
2022-12-01T11:57:25.266Z,13.80
2022-12-01T11:59:41.055Z,13.80
2022-12-01T12:02:41.723Z,13.90
2022-12-01T12:05:33.629Z,13.90
2022-12-01T12:08:12.340Z,13.90
2022-12-01T12:11:03.987Z,13.90
2022-12-01T12:13:33.751Z,13.90
2022-12-01T12:16:19.647Z,13.80
2022-12-01T12:18:55.578Z,13.80
2022-12-01T12:21:39.103Z,13.80
2022-12-01T12:24:27.377Z,13.80
2022-12-01T12:27:24.442Z,13.70
2022-12-01T12:30:13.697Z,13.80
2022-12-01T12:32:46.876Z,13.60
2022-12-01T12:35:22.694Z,13.60
2022-12-01T12:38:15.388Z,13.50
2022-12-01T12:40:46.058Z,13.50
2022-12-01T12:43:35.577Z,13.50
2022-12-01T12:46:12.531Z,13.50
2022-12-01T12:49:19.322Z,13.40
2022-12-01T12:51:51.296Z,13.40
2022-12-01T12:54:27.926Z,13.30
2022-12-01T12:57:02.100Z,13.30
2022-12-01T12:59:44.084Z,13.30
2022-12-01T13:02:15.076Z,13.30
2022-12-01T13:05:01.098Z,13.10
2022-12-01T13:07:47.129Z,13.20
2022-12-01T13:10:19.656Z,13.00
2022-12-01T13:12:56.207Z,13.00
2022-12-01T13:15:23.108Z,13.10
2022-12-01T13:17:58.590Z,13.00
2022-12-01T13:20:27.950Z,13.00
2022-12-01T13:22:57.589Z,13.00
2022-12-01T13:25:35.197Z,13.00
2022-12-01T13:28:06.040Z,13.00
2022-12-01T13:30:32.883Z,13.10
2022-12-01T13:33:05.237Z,13.10
2022-12-01T13:35:39.706Z,13.10
2022-12-01T13:38:34.057Z,13.00
2022-12-01T13:41:18.023Z,12.90
2022-12-01T13:44:10.137Z,13.00
2022-12-01T13:46:43.058Z,12.90
2022-12-01T13:49:33.489Z,12.80
2022-12-01T13:52:21.955Z,12.70
2022-12-01T13:55:13.364Z,12.80
2022-12-01T13:57:47.308Z,12.70
2022-12-01T14:00:24.035Z,12.70
2022-12-01T14:03:12.848Z,12.60
2022-12-01T14:06:01.226Z,12.60
2022-12-01T14:08:36.304Z,12.50
2022-12-01T14:11:21.414Z,12.50
2022-12-01T14:13:55.910Z,12.50
2022-12-01T14:16:23.212Z,12.30
2022-12-01T14:18:55.472Z,12.30
2022-12-01T14:21:47.271Z,12.40
2022-12-01T14:24:37.980Z,12.30
2022-12-01T14:27:06.854Z,12.50
2022-12-01T14:29:33.664Z,12.50
2022-12-01T14:32:00.437Z,12.50
2022-12-01T14:34:31.589Z,12.40
2022-12-01T14:37:09.753Z,12.50
2022-12-01T14:39:40.410Z,12.40
2022-12-01T14:42:35.928Z,12.30
2022-12-01T14:45:04.429Z,12.30
2022-12-01T14:47:42.019Z,12.10
2022-12-01T14:50:25.516Z,12.20
2022-12-01T14:53:22.646Z,12.00
2022-12-01T14:55:59.354Z,12.00
2022-12-01T14:58:28.476Z,11.90
2022-12-01T15:01:07.641Z,11.80
2022-12-01T15:03:38.794Z,11.80
2022-12-01T15:06:06.304Z,11.70
2022-12-01T15:09:10.666Z,11.60
2022-12-01T15:11:26.027Z,11.60
2022-12-01T15:13:57.590Z,11.50
2022-12-01T15:16:28.279Z,11.40
2022-12-01T15:18:55.250Z,11.50
2022-12-01T15:21:30.990Z,11.30
2022-12-01T15:24:02.282Z,11.30
2022-12-01T15:26:37.786Z,11.30
2022-12-01T15:29:23.996Z,11.30
2022-12-01T15:31:59.814Z,11.10
2022-12-01T15:34:42.100Z,11.10
2022-12-01T15:37:14.969Z,11.00
2022-12-01T15:39:52.501Z,11.00
2022-12-01T15:42:27.181Z,11.00
2022-12-01T15:45:16.245Z,10.90
2022-12-01T15:47:46.029Z,11.00
2022-12-01T15:50:42.642Z,10.90
2022-12-01T15:53:29.322Z,10.80
2022-12-01T15:55:59.206Z,10.90
2022-12-01T15:58:30.405Z,10.70
2022-12-01T16:01:04.419Z,10.80
2022-12-01T16:03:32.375Z,10.80
2022-12-01T16:05:59.310Z,10.70
2022-12-01T16:08:29.175Z,10.60
2022-12-01T16:11:18.962Z,10.70
2022-12-01T16:13:45.780Z,10.70
2022-12-01T16:16:27.507Z,10.70
2022-12-01T16:18:57.362Z,10.60
2022-12-01T16:21:25.049Z,10.60
2022-12-01T16:24:03.526Z,10.60
2022-12-01T16:26:31.793Z,10.60
2022-12-01T16:28:59.203Z,10.60
2022-12-01T16:31:27.052Z,10.60
2022-12-01T16:34:14.098Z,10.50
2022-12-01T16:36:45.683Z,10.50
2022-12-01T16:39:14.398Z,10.40
2022-12-01T16:41:44.702Z,10.50
2022-12-01T16:44:28.216Z,10.40
2022-12-01T16:46:56.241Z,10.50
2022-12-01T16:49:23.213Z,10.40
2022-12-01T16:51:55.748Z,10.40
2022-12-01T16:54:23.533Z,10.30
2022-12-01T16:56:51.018Z,10.30
2022-12-01T16:59:17.830Z,10.30
2022-12-01T17:01:44.708Z,10.30
2022-12-01T17:04:11.687Z,10.30
2022-12-01T17:06:38.549Z,10.30
2022-12-01T17:09:05.421Z,10.30
2022-12-01T17:11:32.600Z,10.20
2022-12-01T17:13:59.490Z,10.20
2022-12-01T17:16:26.492Z,10.20
2022-12-01T17:18:54.624Z,10.30
2022-12-01T17:21:21.522Z,10.20
2022-12-01T17:23:48.340Z,10.30
2022-12-01T17:26:17.292Z,10.20
2022-12-01T17:28:44.318Z,10.30
2022-12-01T17:31:11.451Z,10.20
2022-12-01T17:33:38.775Z,10.20
2022-12-01T17:36:10.009Z,10.20
2022-12-01T17:38:41.391Z,10.20
2022-12-01T17:41:10.168Z,10.10
2022-12-01T17:43:38.373Z,10.10
2022-12-01T17:46:06.904Z,10.10
2022-12-01T17:48:37.689Z,10.10
2022-12-01T17:51:05.038Z,10.10
2022-12-01T17:53:32.973Z,10.00
2022-12-01T17:55:59.818Z,10.00
2022-12-01T17:58:27.014Z,10.00
2022-12-01T18:00:54.263Z,10.00
2022-12-01T18:03:21.940Z,10.00
2022-12-01T18:05:59.596Z,10.00
2022-12-01T18:08:29.829Z,10.00
2022-12-01T18:11:02.142Z,9.90
2022-12-01T18:13:29.265Z,10.00
2022-12-01T18:15:56.234Z,9.90
2022-12-01T18:18:23.066Z,9.90
2022-12-01T18:20:49.999Z,9.90
2022-12-01T18:23:16.871Z,9.90
2022-12-01T18:25:43.621Z,9.80
2022-12-01T18:28:11.184Z,9.80
2022-12-01T18:30:39.054Z,9.90
2022-12-01T18:33:09.745Z,9.70
2022-12-01T18:35:42.127Z,9.80
2022-12-01T18:38:09.207Z,9.80
2022-12-01T18:40:38.001Z,9.80
2022-12-01T18:43:05.376Z,9.80
2022-12-01T18:45:32.437Z,9.80
2022-12-01T18:47:59.257Z,9.80
2022-12-01T18:50:26.208Z,9.70
2022-12-01T18:52:53.056Z,9.70
2022-12-01T18:55:20.417Z,9.80
2022-12-01T18:57:47.224Z,9.70
2022-12-01T19:00:14.744Z,9.70
2022-12-01T19:02:41.694Z,9.70
2022-12-01T19:05:10.033Z,9.70
2022-12-01T19:07:36.922Z,9.70
2022-12-01T19:10:04.162Z,9.70
2022-12-01T19:12:32.467Z,9.70
2022-12-01T19:15:02.104Z,9.60
2022-12-01T19:17:31.759Z,9.60
2022-12-01T19:19:59.846Z,9.50
2022-12-01T19:22:27.021Z,9.60
2022-12-01T19:24:54.383Z,9.50
2022-12-01T19:27:21.365Z,9.50
2022-12-01T19:29:48.499Z,9.60
2022-12-01T19:32:15.828Z,9.50
2022-12-01T19:34:43.394Z,9.60
2022-12-01T19:37:11.115Z,9.50
2022-12-01T19:39:38.738Z,9.50
2022-12-01T19:42:05.597Z,9.50
2022-12-01T19:44:32.829Z,9.50
2022-12-01T19:46:59.795Z,9.50
2022-12-01T19:49:26.679Z,9.50
2022-12-01T19:51:53.467Z,9.50
2022-12-01T19:54:20.846Z,9.40
2022-12-01T19:56:51.188Z,9.40
2022-12-01T19:59:17.973Z,9.40
2022-12-01T20:01:45.118Z,9.40
2022-12-01T20:04:12.108Z,9.30
2022-12-01T20:06:39.000Z,9.30
2022-12-01T20:09:07.285Z,9.40
2022-12-01T20:11:35.396Z,9.20
2022-12-01T20:14:04.384Z,9.30
2022-12-01T20:16:32.264Z,9.30
2022-12-01T20:19:05.198Z,9.30
2022-12-01T20:21:36.196Z,9.30
2022-12-01T20:24:07.532Z,9.30
2022-12-01T20:26:38.593Z,9.30
2022-12-01T20:29:10.381Z,9.40
2022-12-01T20:31:38.425Z,9.40
2022-12-01T20:34:12.645Z,9.40
2022-12-01T20:36:40.615Z,9.40
2022-12-01T20:39:08.567Z,9.20
2022-12-01T20:41:35.862Z,9.40
2022-12-01T20:44:07.212Z,9.30
2022-12-01T20:46:36.223Z,9.30
2022-12-01T20:49:03.864Z,9.30
2022-12-01T20:51:33.311Z,9.30
2022-12-01T20:54:26.730Z,9.30
2022-12-01T20:56:48.686Z,9.20
2022-12-01T20:59:15.498Z,9.20
2022-12-01T21:01:42.343Z,9.30
2022-12-01T21:04:09.174Z,9.20
2022-12-01T21:06:36.165Z,9.20
2022-12-01T21:09:04.298Z,9.20
2022-12-01T21:12:02.902Z,9.20
2022-12-01T21:14:48.774Z,9.20
2022-12-01T21:17:20.510Z,9.10
2022-12-01T21:19:57.231Z,9.10
2022-12-01T21:22:25.342Z,9.00
2022-12-01T21:24:53.300Z,9.10
2022-12-01T21:27:20.398Z,9.10
2022-12-01T21:29:48.972Z,9.10
2022-12-01T21:32:23.065Z,9.10
2022-12-01T21:34:50.122Z,9.20
2022-12-01T21:37:25.002Z,9.00
2022-12-01T21:39:53.345Z,9.00
2022-12-01T21:42:26.303Z,8.90
2022-12-01T21:44:56.015Z,9.00
2022-12-01T21:47:25.714Z,9.00
2022-12-01T21:49:54.466Z,8.90
2022-12-01T21:52:30.200Z,8.80
2022-12-01T21:55:14.355Z,9.00
2022-12-01T21:57:52.824Z,8.80
2022-12-01T22:00:36.811Z,8.90
2022-12-01T22:03:09.482Z,9.00
2022-12-01T22:05:56.165Z,8.80
2022-12-01T22:08:39.778Z,8.70
2022-12-01T22:11:09.633Z,8.80
2022-12-01T22:13:49.870Z,8.70
2022-12-01T22:16:19.656Z,8.90
2022-12-01T22:18:57.904Z,8.70
2022-12-01T22:21:32.507Z,8.80
2022-12-01T22:24:08.117Z,8.60
2022-12-01T22:26:44.498Z,8.60
2022-12-01T22:29:23.568Z,8.70
2022-12-01T22:31:50.512Z,8.60
2022-12-01T22:34:20.409Z,8.60
2022-12-01T22:36:47.255Z,8.60
2022-12-01T22:39:30.789Z,8.50
2022-12-01T22:42:03.158Z,8.50
2022-12-01T22:44:31.447Z,8.50
2022-12-01T22:47:02.007Z,8.40
2022-12-01T22:49:29.855Z,8.40
2022-12-01T22:52:02.633Z,8.40
2022-12-01T22:54:42.415Z,8.50
2022-12-01T22:57:21.913Z,8.30
2022-12-01T22:59:50.306Z,8.40
2022-12-01T23:02:29.546Z,8.30
2022-12-01T23:04:59.985Z,8.20
2022-12-01T23:07:41.377Z,8.30
2022-12-01T23:10:29.950Z,8.20
2022-12-01T23:13:00.504Z,8.20
2022-12-01T23:15:36.441Z,8.10
2022-12-01T23:18:28.463Z,8.00
2022-12-01T23:21:00.493Z,8.10
2022-12-01T23:23:29.561Z,8.00
2022-12-01T23:25:56.878Z,8.00
2022-12-01T23:28:24.844Z,8.10
2022-12-01T23:30:56.900Z,7.80
2022-12-01T23:33:27.495Z,7.90
2022-12-01T23:36:04.424Z,8.00
2022-12-01T23:38:41.754Z,7.90
2022-12-01T23:41:21.510Z,7.80
2022-12-01T23:43:52.381Z,7.90
2022-12-01T23:46:22.726Z,7.80
2022-12-01T23:48:55.832Z,7.80
2022-12-01T23:51:28.037Z,7.80
2022-12-01T23:53:56.553Z,7.90
2022-12-01T23:56:25.634Z,7.50
2022-12-01T23:58:54.363Z,7.60
